Time;durP1;ratioP1;P1;durP2;ratioP2;P2;SDS_P1;SDS_P2;PMS_P1;PMS_P2;Temp;Humidity;BMP_temperature;BMP_pressure;BME280_temperature;BME280_humidity;BME280_pressure;Samples;Min_cycle;Max_cycle;Signal;HPM_P1;HPM_P2
2021/06/12 00:02:09;;;;;;;3.03;2.50;;;20.80;67.20;;;;;;5014376;28;20571;-93
2021/06/12 00:04:34;;;;;;;3.95;3.15;;;20.80;66.70;;;;;;5036491;28;20026;-93
2021/06/12 00:07:00;;;;;;;3.25;2.70;;;20.80;67.20;;;;;;5036509;28;20029;-93
2021/06/12 00:09:26;;;;;;;4.07;2.80;;;20.70;67.20;;;;;;5018139;28;20116;-93
2021/06/12 00:11:52;;;;;;;3.95;3.40;;;20.80;67.20;;;;;;5018769;28;20484;-93
2021/06/12 00:14:19;;;;;;;3.30;2.80;;;20.70;67.30;;;;;;5036170;28;20022;-95
2021/06/12 00:16:45;;;;;;;3.92;3.05;;;20.70;67.40;;;;;;5034444;28;20014;-95
2021/06/12 00:19:10;;;;;;;4.30;3.10;;;20.70;67.30;;;;;;5007004;28;20033;-96
2021/06/12 00:21:37;;;;;;;3.20;2.88;;;20.70;67.70;;;;;;5036057;28;20036;-94
2021/06/12 00:24:07;;;;;;;4.28;3.22;;;20.70;67.80;;;;;;5018115;28;20018;-96
2021/06/12 00:26:33;;;;;;;3.30;2.72;;;20.60;68.00;;;;;;5019621;28;20055;-95
2021/06/12 00:28:59;;;;;;;5.28;3.38;;;20.60;67.80;;;;;;5036218;28;20109;-96
2021/06/12 00:31:27;;;;;;;4.18;3.40;;;20.60;68.10;;;;;;5018657;28;20025;-95
2021/06/12 00:33:52;;;;;;;4.18;2.53;;;20.50;68.30;;;;;;5019799;28;20025;-94
2021/06/12 00:36:20;;;;;;;3.42;2.83;;;20.50;68.30;;;;;;5021185;28;20030;-93
2021/06/12 00:38:46;;;;;;;4.60;3.50;;;20.50;68.40;;;;;;5018038;28;20014;-95
2021/06/12 00:41:12;;;;;;;3.42;2.78;;;20.50;68.70;;;;;;5035808;28;20044;-96
2021/06/12 00:43:40;;;;;;;3.63;3.08;;;20.40;68.60;;;;;;5035865;28;20071;-95
2021/06/12 00:46:06;;;;;;;3.08;2.58;;;20.40;68.70;;;;;;5018123;28;20435;-94
2021/06/12 00:48:32;;;;;;;3.38;2.92;;;20.40;68.70;;;;;;5017975;28;20032;-94
2021/06/12 00:50:57;;;;;;;4.68;3.70;;;20.40;68.70;;;;;;5035910;28;20464;-95
2021/06/12 00:53:37;;;;;;;3.95;3.00;;;20.40;68.90;;;;;;5035531;28;20057;-95
2021/06/12 00:56:07;;;;;;;3.20;2.83;;;20.40;68.80;;;;;;5017997;28;20502;-95
2021/06/12 00:58:35;;;;;;;3.30;2.63;;;20.40;68.80;;;;;;5017718;28;20813;-94
2021/06/12 01:01:00;;;;;;;4.07;2.88;;;20.40;68.80;;;;;;5035598;28;20029;-93
2021/06/12 01:03:28;;;;;;;4.95;4.10;;;20.30;68.90;;;;;;5035159;28;20646;-94
2021/06/12 01:05:57;;;;;;;4.40;3.92;;;20.30;69.30;;;;;;5035511;28;20032;-94
2021/06/12 01:08:23;;;;;;;4.85;3.95;;;20.20;69.70;;;;;;5039149;28;20028;-94
2021/06/12 01:10:49;;;;;;;5.68;3.88;;;20.10;69.90;;;;;;5041243;28;20017;-95
2021/06/12 01:13:42;;;;;;;3.63;3.28;;;20.20;70.00;;;;;;5017740;28;20025;-96
2021/06/12 01:16:29;;;;;;;5.05;3.13;;;20.20;70.00;;;;;;5017607;28;20447;-96
2021/06/12 01:18:56;;;;;;;5.35;3.80;;;20.10;69.90;;;;;;5017472;28;20037;-96
2021/06/12 01:21:38;;;;;;;4.63;3.42;;;20.10;70.00;;;;;;5036925;28;20025;-96
2021/06/12 01:24:44;;;;;;;3.85;3.22;;;20.10;70.20;;;;;;5038159;28;20032;-96
2021/06/12 01:27:51;;;;;;;4.03;3.47;;;20.10;70.30;;;;;;4987314;28;20041;-96
2021/06/12 01:30:22;;;;;;;4.22;2.95;;;20.00;70.30;;;;;;5006001;28;20029;-96
2021/06/12 01:32:59;;;;;;;4.20;3.17;;;20.00;70.20;;;;;;5019635;28;20045;-96
2021/06/12 01:35:33;;;;;;;5.15;3.75;;;20.00;70.30;;;;;;5018754;28;20033;-96
2021/06/12 01:38:00;;;;;;;5.15;3.83;;;20.00;70.30;;;;;;5019529;28;20025;-96
2021/06/12 01:40:29;;;;;;;3.60;2.92;;;20.00;70.60;;;;;;5025094;28;20026;-96
2021/06/12 01:42:56;;;;;;;4.72;3.45;;;20.00;70.50;;;;;;5043382;28;20105;-94
2021/06/12 01:45:23;;;;;;;4.20;3.13;;;20.00;70.50;;;;;;5023567;28;20370;-94
2021/06/12 01:47:51;;;;;;;4.95;3.50;;;20.10;70.40;;;;;;5039877;28;20056;-95
2021/06/12 01:50:20;;;;;;;4.05;3.33;;;20.10;70.40;;;;;;5045511;28;20026;-95
2021/06/12 01:52:47;;;;;;;5.03;3.72;;;20.10;70.40;;;;;;5046085;28;20028;-93
2021/06/12 01:55:15;;;;;;;4.93;3.53;;;20.10;70.60;;;;;;5020017;28;20041;-96
2021/06/12 01:57:45;;;;;;;2.90;2.35;;;20.10;70.50;;;;;;5036160;28;20028;-96
2021/06/12 02:00:13;;;;;;;4.65;3.22;;;20.10;70.40;;;;;;5035640;28;20026;-95
2021/06/12 02:02:40;;;;;;;3.92;3.08;;;20.10;70.30;;;;;;5035072;28;20082;-95
2021/06/12 02:05:09;;;;;;;3.70;2.28;;;20.10;70.30;;;;;;5016854;28;20022;-91
2021/06/12 02:07:36;;;;;;;3.35;2.30;;;20.10;70.30;;;;;;5016754;28;20120;-96
2021/06/12 02:10:03;;;;;;;5.10;3.65;;;20.10;70.50;;;;;;5034813;28;20030;-95
2021/06/12 02:12:29;;;;;;;4.40;3.13;;;20.10;70.70;;;;;;5016584;28;20014;-96
2021/06/12 02:14:58;;;;;;;3.50;2.85;;;20.10;70.70;;;;;;5016865;28;20021;-92
2021/06/12 02:17:26;;;;;;;5.53;3.63;;;20.10;70.70;;;;;;5033680;28;20025;-92
2021/06/12 02:19:52;;;;;;;5.55;3.65;;;20.10;70.50;;;;;;5033548;28;20112;-94
2021/06/12 02:22:18;;;;;;;4.22;3.00;;;20.10;70.70;;;;;;5034202;28;20064;-94
2021/06/12 02:24:44;;;;;;;4.32;3.25;;;20.10;70.80;;;;;;5033823;28;20571;-93
2021/06/12 02:27:11;;;;;;;4.65;3.10;;;20.10;70.80;;;;;;5033508;28;20021;-95
2021/06/12 02:29:38;;;;;;;4.55;3.35;;;20.10;70.80;;;;;;5015042;28;20029;-92
2021/06/12 02:32:07;;;;;;;4.75;2.95;;;20.10;71.00;;;;;;5033077;28;20168;-91
2021/06/12 02:34:35;;;;;;;4.68;3.60;;;20.10;71.00;;;;;;5015330;28;20135;-92
2021/06/12 02:37:02;;;;;;;4.22;3.20;;;20.00;71.10;;;;;;5015711;28;20018;-91
2021/06/12 02:39:28;;;;;;;6.55;4.15;;;20.00;71.20;;;;;;5015277;28;20025;-91
2021/06/12 02:41:54;;;;;;;5.80;4.13;;;19.90;71.70;;;;;;5033378;28;20578;-92
2021/06/12 02:44:19;;;;;;;4.90;3.40;;;19.90;71.70;;;;;;5032924;28;20625;-91
2021/06/12 02:46:46;;;;;;;5.50;3.40;;;19.90;71.70;;;;;;5032889;28;20494;-89
2021/06/12 02:49:16;;;;;;;4.50;3.15;;;19.90;71.70;;;;;;5014965;28;20033;-91
2021/06/12 02:51:47;;;;;;;6.10;4.13;;;19.90;71.60;;;;;;5035575;28;20031;-90
2021/06/12 02:54:13;;;;;;;5.32;3.78;;;19.90;71.90;;;;;;5033070;28;20048;-90
2021/06/12 02:56:40;;;;;;;4.95;3.17;;;19.90;71.80;;;;;;5015036;28;20117;-90
2021/06/12 02:59:11;;;;;;;4.70;2.92;;;19.90;71.80;;;;;;5032443;28;20025;-91
2021/06/12 03:01:40;;;;;;;5.70;3.58;;;19.90;71.70;;;;;;5032758;28;20101;-91
2021/06/12 03:04:08;;;;;;;6.95;4.82;;;19.90;71.60;;;;;;5032910;28;20088;-89
2021/06/12 03:06:36;;;;;;;6.07;4.15;;;19.90;71.80;;;;;;5032837;28;20040;-90
2021/06/12 03:09:03;;;;;;;6.07;3.75;;;19.80;72.00;;;;;;5032527;28;20017;-90
2021/06/12 03:11:31;;;;;;;4.72;3.08;;;19.80;72.00;;;;;;5015237;28;20025;-90
2021/06/12 03:13:58;;;;;;;5.68;3.47;;;19.80;72.10;;;;;;5032344;28;20492;-91
2021/06/12 03:16:25;;;;;;;6.55;3.53;;;19.80;72.00;;;;;;5015328;28;20649;-91
2021/06/12 03:18:51;;;;;;;4.90;3.35;;;19.80;72.00;;;;;;5018667;28;20026;-92
2021/06/12 03:21:23;;;;;;;7.25;4.72;;;19.80;72.20;;;;;;5032544;28;20025;-92
2021/06/12 03:23:51;;;;;;;6.07;3.88;;;19.80;72.40;;;;;;5031754;28;20025;-92
2021/06/12 03:26:18;;;;;;;5.47;3.72;;;19.70;72.50;;;;;;5031686;28;20479;-92
2021/06/12 03:28:44;;;;;;;5.82;3.38;;;19.70;72.50;;;;;;5032067;28;20134;-91
2021/06/12 03:31:11;;;;;;;5.90;3.50;;;19.70;72.50;;;;;;5032996;28;20018;-92
2021/06/12 03:33:36;;;;;;;6.40;3.88;;;19.70;73.00;;;;;;5031441;28;20033;-92
2021/06/12 03:36:03;;;;;;;5.82;3.97;;;19.70;72.40;;;;;;5031158;28;20489;-90
2021/06/12 03:38:29;;;;;;;5.82;3.20;;;19.80;72.50;;;;;;5032084;28;20423;-91
2021/06/12 03:40:56;;;;;;;5.25;3.78;;;19.70;72.20;;;;;;5032351;28;20064;-89
2021/06/12 03:43:23;;;;;;;6.22;3.50;;;19.80;72.30;;;;;;5032597;28;20025;-90
2021/06/12 03:45:53;;;;;;;5.93;3.28;;;19.70;72.40;;;;;;5031209;28;20025;-90
2021/06/12 03:48:20;;;;;;;7.72;3.35;;;19.70;72.40;;;;;;5032323;28;20045;-91
2021/06/12 03:50:47;;;;;;;6.90;4.28;;;19.70;72.50;;;;;;5032297;28;20494;-92
2021/06/12 03:53:13;;;;;;;5.68;3.13;;;19.70;72.40;;;;;;5032578;28;20464;-91
2021/06/12 03:55:39;;;;;;;6.38;3.67;;;19.70;72.40;;;;;;5032223;28;20036;-91
2021/06/12 03:58:05;;;;;;;5.00;3.22;;;19.70;72.40;;;;;;5032138;28;20375;-90
2021/06/12 04:00:31;;;;;;;5.43;3.45;;;19.80;72.40;;;;;;5032393;28;20029;-92
2021/06/12 04:02:57;;;;;;;6.05;4.20;;;19.70;72.50;;;;;;5031102;28;20396;-93
2021/06/12 04:05:23;;;;;;;3.67;2.72;;;19.70;72.60;;;;;;5032301;28;20017;-94
2021/06/12 04:07:48;;;;;;;4.15;2.58;;;19.70;72.50;;;;;;5032708;28;20071;-94
2021/06/12 04:10:14;;;;;;;5.22;3.35;;;19.70;72.50;;;;;;5032349;28;20060;-92
2021/06/12 04:12:40;;;;;;;5.40;3.65;;;19.80;72.50;;;;;;5031991;28;20079;-93
2021/06/12 04:15:06;;;;;;;6.05;3.90;;;19.80;72.50;;;;;;5014457;28;20120;-96
2021/06/12 04:17:32;;;;;;;7.60;4.10;;;19.70;72.80;;;;;;5031701;28;20029;-95
2021/06/12 04:19:58;;;;;;;8.80;4.47;;;19.70;72.90;;;;;;5031599;28;20087;-91
2021/06/12 04:22:24;;;;;;;6.72;4.43;;;19.70;73.10;;;;;;5031749;28;20077;-94
2021/06/12 04:24:50;;;;;;;7.25;4.72;;;19.70;73.30;;;;;;5032284;28;20025;-92
2021/06/12 04:27:15;;;;;;;6.50;4.93;;;19.70;73.10;;;;;;5014493;28;20109;-93
2021/06/12 04:29:41;;;;;;;5.88;4.57;;;19.70;73.10;;;;;;5031815;28;20037;-91
2021/06/12 04:32:07;;;;;;;9.70;5.45;;;19.70;73.30;;;;;;5031343;28;20025;-89
2021/06/12 04:34:32;;;;;;;7.20;4.63;;;19.70;73.50;;;;;;5031562;28;20044;-89
2021/06/12 04:36:59;;;;;;;8.05;5.38;;;19.70;73.50;;;;;;5031046;28;20464;-90
2021/06/12 04:39:26;;;;;;;7.15;4.97;;;19.70;73.40;;;;;;5013581;28;20062;-93
2021/06/12 04:41:51;;;;;;;6.00;4.60;;;19.70;73.30;;;;;;5024840;28;20050;-87
2021/06/12 04:44:17;;;;;;;7.50;5.63;;;19.70;73.30;;;;;;5004946;28;20096;-90
2021/06/12 04:46:43;;;;;;;8.68;6.68;;;19.70;73.20;;;;;;4999538;28;20026;-87
2021/06/12 04:49:09;;;;;;;5.72;4.32;;;19.70;73.70;;;;;;4981558;28;20018;-87
2021/06/12 04:51:35;;;;;;;7.63;5.57;;;19.70;73.60;;;;;;5003667;28;20022;-87
2021/06/12 04:54:00;;;;;;;9.05;6.05;;;19.70;73.50;;;;;;5006173;28;20025;-86
2021/06/12 04:56:26;;;;;;;7.40;5.90;;;19.70;73.50;;;;;;4987483;28;20022;-88
2021/06/12 04:58:51;;;;;;;6.82;5.05;;;19.70;73.50;;;;;;5000431;28;20794;-87
2021/06/12 05:01:17;;;;;;;8.60;5.97;;;19.70;73.40;;;;;;4997369;28;20054;-87
2021/06/12 05:03:43;;;;;;;7.20;5.40;;;19.70;73.30;;;;;;5002922;28;20358;-87
2021/06/12 05:06:08;;;;;;;6.57;4.95;;;19.70;73.30;;;;;;5011296;28;20037;-91
2021/06/12 05:08:34;;;;;;;7.63;5.50;;;19.70;73.30;;;;;;5012954;28;20022;-87
2021/06/12 05:10:59;;;;;;;7.97;5.20;;;19.80;73.40;;;;;;5014485;28;20018;-87
2021/06/12 05:13:25;;;;;;;8.32;5.50;;;19.80;73.30;;;;;;5011053;28;20040;-88
2021/06/12 05:15:52;;;;;;;6.43;5.20;;;19.70;73.40;;;;;;4990834;28;20026;-90
2021/06/12 05:18:18;;;;;;;6.47;5.15;;;19.80;73.30;;;;;;5016063;28;20026;-89
2021/06/12 05:20:44;;;;;;;5.93;4.40;;;19.80;73.30;;;;;;5035118;28;20025;-88
2021/06/12 05:23:10;;;;;;;5.13;3.20;;;19.90;73.10;;;;;;5034955;28;20021;-88
2021/06/12 05:25:36;;;;;;;4.97;3.58;;;19.90;72.90;;;;;;5015403;28;20108;-92
2021/06/12 05:28:02;;;;;;;7.75;4.85;;;19.90;72.90;;;;;;5014840;28;20051;-89
2021/06/12 05:30:28;;;;;;;5.75;4.20;;;19.90;72.90;;;;;;5033534;28;20097;-92
2021/06/12 05:32:53;;;;;;;8.52;5.40;;;20.00;72.70;;;;;;5034892;28;20087;-92
2021/06/12 05:35:19;;;;;;;6.32;4.10;;;20.00;72.80;;;;;;5020569;28;20099;-88
2021/06/12 05:37:45;;;;;;;6.40;3.80;;;19.90;72.70;;;;;;5038338;28;20535;-91
2021/06/12 05:40:12;;;;;;;5.90;4.05;;;19.90;72.70;;;;;;5024563;28;20113;-89
2021/06/12 05:42:38;;;;;;;6.63;3.85;;;20.00;72.60;;;;;;5032889;28;20075;-93
2021/06/12 05:45:06;;;;;;;4.45;3.50;;;20.10;72.50;;;;;;5048777;28;20021;-88
2021/06/12 05:47:31;;;;;;;4.78;3.38;;;20.10;72.40;;;;;;4996610;28;20122;-89
2021/06/12 05:49:57;;;;;;;5.75;4.05;;;20.20;72.20;;;;;;5013997;28;20066;-92
2021/06/12 05:52:23;;;;;;;7.93;4.00;;;20.20;72.30;;;;;;5014275;28;20025;-91
2021/06/12 05:54:48;;;;;;;6.38;4.20;;;20.20;72.20;;;;;;4996645;28;20381;-90
2021/06/12 05:57:14;;;;;;;6.22;3.75;;;20.30;72.30;;;;;;5014226;28;20022;-91
2021/06/12 05:59:41;;;;;;;7.18;4.65;;;20.30;72.20;;;;;;5013853;28;20390;-92
2021/06/12 06:02:07;;;;;;;7.28;4.35;;;20.40;72.20;;;;;;5026763;28;20022;-92
2021/06/12 06:04:33;;;;;;;4.97;3.72;;;20.50;71.80;;;;;;5021533;28;20121;-91
2021/06/12 06:06:58;;;;;;;6.60;4.45;;;20.80;71.30;;;;;;5052910;28;20119;-93
2021/06/12 06:09:24;;;;;;;7.20;4.20;;;20.90;70.80;;;;;;5043061;28;20063;-93
2021/06/12 06:11:50;;;;;;;4.75;3.03;;;21.10;70.20;;;;;;5036572;28;20013;-92
2021/06/12 06:14:15;;;;;;;5.38;3.20;;;21.40;69.40;;;;;;5053569;28;20021;-92
2021/06/12 06:16:41;;;;;;;4.53;3.17;;;21.60;68.80;;;;;;5043079;28;20021;-92
2021/06/12 06:19:08;;;;;;;6.40;3.55;;;21.70;68.50;;;;;;5028466;28;20032;-92
2021/06/12 06:21:34;;;;;;;5.63;3.17;;;21.80;68.00;;;;;;5033892;28;20029;-93
2021/06/12 06:23:59;;;;;;;5.95;3.28;;;22.00;67.70;;;;;;5044353;28;20025;-91
2021/06/12 06:26:25;;;;;;;6.13;3.50;;;22.10;67.20;;;;;;5034010;28;20018;-92
2021/06/12 06:28:51;;;;;;;5.05;3.00;;;22.00;66.80;;;;;;5015208;28;20030;-92
2021/06/12 06:31:16;;;;;;;5.38;3.47;;;22.10;66.50;;;;;;5047559;28;20540;-91
2021/06/12 06:33:42;;;;;;;5.53;3.10;;;22.30;66.30;;;;;;5035749;28;20112;-92
2021/06/12 06:36:08;;;;;;;3.70;2.60;;;22.50;65.70;;;;;;5034669;28;20033;-92
2021/06/12 06:38:34;;;;;;;5.38;2.70;;;22.70;65.10;;;;;;5015414;28;20060;-92
2021/06/12 06:40:59;;;;;;;3.95;2.17;;;22.90;64.70;;;;;;5038861;28;20056;-92
2021/06/12 06:44:15;;;;;;;5.43;2.75;;;23.20;64.30;;;;;;5051399;28;20163;-92
2021/06/12 06:46:41;;;;;;;4.07;2.55;;;23.20;62.80;;;;;;5044573;28;20029;-92
2021/06/12 06:49:07;;;;;;;4.03;2.50;;;23.20;62.40;;;;;;5041990;28;20464;-93
2021/06/12 06:51:32;;;;;;;3.47;2.50;;;23.30;62.10;;;;;;5050237;28;20028;-93
2021/06/12 06:53:58;;;;;;;4.82;2.40;;;23.40;61.20;;;;;;5024256;28;20014;-93
2021/06/12 06:56:24;;;;;;;3.92;2.08;;;23.50;60.50;;;;;;5029878;28;20532;-93
2021/06/12 06:58:49;;;;;;;4.07;2.40;;;23.70;60.30;;;;;;5039466;28;20025;-93
2021/06/12 07:01:15;;;;;;;3.80;2.10;;;23.70;59.60;;;;;;5049209;28;20042;-92
2021/06/12 07:03:41;;;;;;;3.25;1.90;;;23.80;59.50;;;;;;5053109;28;20024;-93
2021/06/12 07:06:06;;;;;;;2.67;1.80;;;23.90;59.20;;;;;;5049288;28;20024;-94
2021/06/12 07:08:32;;;;;;;5.80;2.40;;;24.20;58.80;;;;;;5037402;28;20361;-92
2021/06/12 07:10:58;;;;;;;3.17;1.90;;;24.20;57.60;;;;;;5024602;28;20028;-95
2021/06/12 07:13:24;;;;;;;3.03;1.92;;;24.30;57.20;;;;;;5038949;28;20017;-92
2021/06/12 07:15:56;;;;;;;3.42;2.00;;;24.30;56.50;;;;;;5034899;28;20048;-92
2021/06/12 07:18:21;;;;;;;3.38;1.92;;;24.30;56.40;;;;;;5039142;28;20040;-91
2021/06/12 07:20:47;;;;;;;2.60;1.90;;;24.40;55.30;;;;;;4998456;28;20017;-93
2021/06/12 07:23:17;;;;;;;3.35;2.00;;;24.30;54.50;;;;;;4996908;28;20022;-92
2021/06/12 07:25:44;;;;;;;3.42;1.70;;;24.30;54.40;;;;;;5027595;28;20017;-93
2021/06/12 07:28:09;;;;;;;3.95;2.00;;;24.10;54.30;;;;;;5023022;28;20026;-90
2021/06/12 07:30:40;;;;;;;2.00;1.55;;;24.00;54.70;;;;;;5009094;28;20036;-93
2021/06/12 07:33:07;;;;;;;3.40;1.80;;;24.00;55.00;;;;;;5008130;28;20046;-94
2021/06/12 07:35:34;;;;;;;2.28;1.60;;;24.00;54.70;;;;;;4995835;28;20038;-89
2021/06/12 07:37:59;;;;;;;2.75;1.52;;;23.80;54.70;;;;;;4994336;28;20018;-92
2021/06/12 07:40:25;;;;;;;2.88;1.42;;;23.70;55.00;;;;;;5004624;28;20022;-93
2021/06/12 07:42:52;;;;;;;2.17;1.55;;;23.70;55.20;;;;;;5015624;28;20534;-92
2021/06/12 07:45:17;;;;;;;2.33;1.58;;;23.60;55.10;;;;;;4995820;28;20038;-92
2021/06/12 07:47:43;;;;;;;1.50;1.40;;;23.40;55.10;;;;;;4998161;28;20027;-90
2021/06/12 07:50:09;;;;;;;2.65;1.60;;;23.40;55.30;;;;;;5004800;28;20484;-91
2021/06/12 07:52:34;;;;;;;2.90;1.50;;;23.30;55.10;;;;;;4993079;28;20030;-90
2021/06/12 07:55:00;;;;;;;3.72;1.42;;;23.20;55.10;;;;;;5011495;28;20389;-88
2021/06/12 07:57:26;;;;;;;3.03;1.55;;;23.20;55.10;;;;;;5011737;28;20022;-90
2021/06/12 07:59:52;;;;;;;3.50;1.70;;;23.20;54.90;;;;;;5012446;28;20022;-92
2021/06/12 08:02:17;;;;;;;4.25;1.65;;;23.20;54.60;;;;;;5012531;28;20022;-91
2021/06/12 08:04:45;;;;;;;2.35;1.52;;;23.20;54.50;;;;;;5011036;28;20018;-90
2021/06/12 08:07:12;;;;;;;2.78;1.60;;;23.10;54.30;;;;;;5017892;28;20589;-88
2021/06/12 08:09:38;;;;;;;3.20;1.80;;;23.10;54.20;;;;;;4995374;28;20041;-87
2021/06/12 08:12:05;;;;;;;3.33;1.50;;;23.00;54.20;;;;;;5002073;28;20025;-89
2021/06/12 08:14:31;;;;;;;2.42;1.45;;;23.20;54.00;;;;;;5016776;28;20034;-87
2021/06/12 08:16:56;;;;;;;2.88;1.40;;;23.30;54.10;;;;;;4993506;28;20030;-87
2021/06/12 08:19:22;;;;;;;2.42;1.35;;;23.30;53.60;;;;;;5018508;28;20396;-86
2021/06/12 08:21:48;;;;;;;2.08;1.33;;;23.30;54.00;;;;;;5026609;28;20702;-88
2021/06/12 08:24:14;;;;;;;2.95;1.33;;;23.40;53.40;;;;;;5029950;28;20420;-88
2021/06/12 08:26:41;;;;;;;2.88;1.40;;;23.50;52.90;;;;;;5031859;28;20029;-89
2021/06/12 08:29:07;;;;;;;2.28;1.30;;;23.70;52.60;;;;;;5014371;28;20021;-87
2021/06/12 08:31:36;;;;;;;3.38;1.50;;;23.80;52.20;;;;;;5033275;28;20021;-87
2021/06/12 08:34:03;;;;;;;2.35;1.50;;;23.80;51.70;;;;;;5023735;28;20022;-88
2021/06/12 08:36:29;;;;;;;2.28;1.35;;;23.80;52.00;;;;;;5011193;28;20068;-86
2021/06/12 08:38:55;;;;;;;1.95;1.10;;;24.00;51.80;;;;;;5032532;28;20022;-88
2021/06/12 08:41:21;;;;;;;1.33;1.10;;;24.00;51.90;;;;;;5033863;28;20112;-87
2021/06/12 08:43:47;;;;;;;2.80;1.40;;;24.20;51.20;;;;;;5033557;28;20018;-87
2021/06/12 08:46:14;;;;;;;2.97;1.50;;;24.30;50.60;;;;;;5033494;28;20498;-88
2021/06/12 08:48:40;;;;;;;2.70;1.90;;;24.40;50.00;;;;;;5032121;28;20087;-87
2021/06/12 08:51:06;;;;;;;2.47;1.60;;;24.30;49.40;;;;;;5032479;28;20040;-87
2021/06/12 08:53:32;;;;;;;2.35;1.35;;;24.30;49.30;;;;;;5032653;28;20449;-87
2021/06/12 08:56:01;;;;;;;2.72;1.52;;;24.20;49.80;;;;;;5032911;28;20052;-88
2021/06/12 08:58:27;;;;;;;2.55;1.30;;;24.20;49.80;;;;;;5032514;28;20021;-88
2021/06/12 09:00:53;;;;;;;2.90;1.50;;;24.20;49.50;;;;;;5032613;28;20037;-88
2021/06/12 09:03:23;;;;;;;2.55;1.48;;;24.20;49.30;;;;;;5033028;28;20349;-88
2021/06/12 09:05:55;;;;;;;3.72;1.50;;;24.10;49.30;;;;;;5032078;28;20419;-88
2021/06/12 09:08:33;;;;;;;2.05;1.40;;;24.20;49.90;;;;;;5014480;28;20014;-88
2021/06/12 09:11:14;;;;;;;3.63;1.60;;;24.20;49.20;;;;;;5021996;28;20068;-88
2021/06/12 09:13:44;;;;;;;3.33;1.53;;;24.20;49.10;;;;;;5033007;28;20021;-88
2021/06/12 09:16:30;;;;;;;2.50;1.58;;;24.10;49.10;;;;;;5014970;28;20300;-88
2021/06/12 09:19:02;;;;;;;4.75;1.80;;;24.10;49.20;;;;;;5032028;28;20033;-87
2021/06/12 09:21:34;;;;;;;3.25;1.63;;;24.10;48.70;;;;;;5032672;28;20109;-88
2021/06/12 09:24:03;;;;;;;3.90;2.00;;;24.20;48.50;;;;;;5033053;28;20109;-88
2021/06/12 09:26:47;;;;;;;3.53;1.70;;;24.20;48.20;;;;;;5032619;28;20045;-88
2021/06/12 09:29:17;;;;;;;2.35;1.65;;;24.20;48.30;;;;;;5032425;28;20025;-88
2021/06/12 09:31:51;;;;;;;3.75;1.80;;;24.20;48.20;;;;;;5032316;28;20100;-87
2021/06/12 09:34:23;;;;;;;4.18;1.60;;;24.30;48.10;;;;;;5031840;28;20025;-87
2021/06/12 09:36:50;;;;;;;3.35;1.80;;;24.20;47.80;;;;;;5032338;28;20076;-88
2021/06/12 09:39:17;;;;;;;3.30;1.90;;;24.10;48.00;;;;;;5032186;28;20022;-88
2021/06/12 09:41:46;;;;;;;3.38;1.80;;;24.10;48.10;;;;;;5015315;28;20048;-87
2021/06/12 09:44:32;;;;;;;3.75;2.00;;;23.90;48.10;;;;;;5015034;28;20028;-89
2021/06/12 09:46:58;;;;;;;2.95;1.80;;;23.80;48.50;;;;;;5016086;28;20052;-89
2021/06/12 09:49:32;;;;;;;3.40;1.83;;;23.70;48.70;;;;;;5016021;28;20572;-91
2021/06/12 09:52:09;;;;;;;3.88;2.17;;;23.80;49.00;;;;;;5033427;28;20404;-90
2021/06/12 09:54:52;;;;;;;3.20;1.80;;;23.80;48.90;;;;;;5034073;28;20036;-90
2021/06/12 09:57:24;;;;;;;3.38;1.60;;;23.90;49.00;;;;;;5002007;28;20063;-90
2021/06/12 09:59:54;;;;;;;2.55;1.65;;;24.00;48.90;;;;;;5015844;28;20506;-91
2021/06/12 10:02:39;;;;;;;2.83;1.80;;;24.10;49.20;;;;;;5015695;28;20030;-90
2021/06/12 10:05:07;;;;;;;1.98;1.40;;;24.10;48.00;;;;;;5033117;28;20021;-87
2021/06/12 10:07:34;;;;;;;4.05;1.67;;;24.10;48.10;;;;;;5032783;28;20093;-90
2021/06/12 10:10:08;;;;;;;3.33;1.80;;;24.20;47.80;;;;;;5032828;28;20021;-91
2021/06/12 10:12:35;;;;;;;4.00;1.60;;;24.20;47.90;;;;;;5015801;28;20079;-88
2021/06/12 10:15:02;;;;;;;3.95;1.95;;;24.30;47.90;;;;;;5033254;28;20057;-91
2021/06/12 10:17:29;;;;;;;2.83;1.70;;;24.30;47.20;;;;;;5032910;28;20021;-90
2021/06/12 10:19:57;;;;;;;2.85;1.70;;;24.40;47.10;;;;;;5032508;28;20064;-90
2021/06/12 10:22:23;;;;;;;3.85;1.88;;;24.50;47.10;;;;;;5032425;28;20185;-89
2021/06/12 10:24:50;;;;;;;5.18;2.00;;;24.50;46.80;;;;;;5032191;28;20104;-89
2021/06/12 10:27:17;;;;;;;5.35;2.25;;;24.50;46.90;;;;;;5033085;28;20080;-91
2021/06/12 10:29:44;;;;;;;5.03;1.88;;;24.30;46.90;;;;;;5014896;28;20097;-91
2021/06/12 10:32:12;;;;;;;3.30;1.70;;;24.20;47.40;;;;;;5032465;28;20026;-90
2021/06/12 10:34:40;;;;;;;2.95;1.58;;;24.20;47.50;;;;;;5032143;28;20029;-91
2021/06/12 10:37:08;;;;;;;5.15;1.63;;;24.10;47.70;;;;;;5032488;28;20036;-90
2021/06/12 10:39:36;;;;;;;5.07;2.20;;;24.00;48.00;;;;;;5014840;28;20090;-91
2021/06/12 10:42:24;;;;;;;4.38;2.40;;;23.80;48.10;;;;;;5032524;28;20029;-90
2021/06/12 10:44:54;;;;;;;3.90;2.00;;;23.70;48.20;;;;;;5032396;28;20642;-87
2021/06/12 10:47:39;;;;;;;3.13;1.70;;;23.50;48.10;;;;;;5030580;28;20634;-87
2021/06/12 10:50:24;;;;;;;4.20;1.83;;;23.50;48.60;;;;;;5013310;28;20025;-87
2021/06/12 10:52:50;;;;;;;3.50;1.80;;;23.50;48.60;;;;;;5032291;28;20050;-92
2021/06/12 10:55:41;;;;;;;3.70;1.52;;;23.50;48.20;;;;;;5031938;28;20039;-89
2021/06/12 10:58:32;;;;;;;3.40;1.50;;;23.50;47.90;;;;;;5031277;28;20456;-88
2021/06/12 11:01:15;;;;;;;3.50;1.60;;;23.60;47.80;;;;;;5031579;28;20024;-88
2021/06/12 11:03:50;;;;;;;4.20;1.92;;;23.70;47.70;;;;;;5031174;28;20041;-88
2021/06/12 11:06:36;;;;;;;3.33;1.60;;;23.80;47.00;;;;;;5030972;28;20049;-89
2021/06/12 11:09:31;;;;;;;3.00;1.60;;;23.80;47.10;;;;;;5014346;28;20096;-88
2021/06/12 11:12:18;;;;;;;4.50;1.67;;;23.80;46.80;;;;;;5013760;28;20033;-89
2021/06/12 11:15:05;;;;;;;4.03;1.70;;;23.80;46.80;;;;;;5017029;28;20041;-87
2021/06/12 11:17:30;;;;;;;3.20;1.50;;;23.90;47.20;;;;;;5030991;28;20104;-88
2021/06/12 11:19:56;;;;;;;3.05;1.35;;;23.90;47.20;;;;;;5031526;28;20117;-90
2021/06/12 11:22:41;;;;;;;4.20;1.75;;;24.10;47.00;;;;;;5032788;28;20036;-91
2021/06/12 11:25:09;;;;;;;3.20;1.63;;;24.10;45.90;;;;;;5032473;28;20525;-91
2021/06/12 11:27:41;;;;;;;2.90;1.58;;;24.10;45.90;;;;;;5031890;28;20025;-89
2021/06/12 11:30:13;;;;;;;2.78;1.40;;;23.90;45.10;;;;;;5032269;28;20125;-91
2021/06/12 11:32:39;;;;;;;;;;;23.90;45.40;;;;;;5012998;28;20034;-90
2021/06/12 11:35:06;;;;;;;3.05;1.60;;;23.90;45.50;;;;;;5031786;28;19961;-92
2021/06/12 11:37:32;;;;;;;3.17;1.45;;;23.90;45.50;;;;;;5010265;28;20588;-91
2021/06/12 11:40:02;;;;;;;3.20;1.30;;;23.90;45.40;;;;;;5023861;28;20052;-92
2021/06/12 11:42:46;;;;;;;3.15;1.60;;;23.80;45.40;;;;;;5014251;28;20029;-91
2021/06/12 11:45:14;;;;;;;3.72;1.65;;;23.70;45.40;;;;;;5031953;28;20018;-90
2021/06/12 11:47:40;;;;;;;4.13;1.63;;;23.90;45.40;;;;;;5031411;28;20033;-91
2021/06/12 11:50:06;;;;;;;4.25;1.70;;;24.00;45.20;;;;;;5021718;28;20022;-91
2021/06/12 11:52:50;;;;;;;4.13;1.60;;;24.00;45.10;;;;;;5027321;28;20527;-91
2021/06/12 11:55:18;;;;;;;3.13;1.40;;;24.10;45.30;;;;;;5031227;28;20032;-91
2021/06/12 11:57:46;;;;;;;4.20;1.38;;;24.20;45.20;;;;;;5013446;28;20025;-90
2021/06/12 12:00:36;;;;;;;4.68;1.77;;;24.40;44.60;;;;;;5033623;28;20083;-90
2021/06/12 12:03:01;;;;;;;2.70;1.50;;;24.40;44.40;;;;;;5027822;28;20075;-90
2021/06/12 12:05:39;;;;;;;2.80;1.30;;;24.30;44.10;;;;;;5034463;28;20030;-90
2021/06/12 12:08:13;;;;;;;3.03;1.80;;;24.30;44.30;;;;;;5034752;28;20324;-89
2021/06/12 12:10:44;;;;;;;3.72;1.45;;;24.30;44.10;;;;;;5034141;28;20029;-89
2021/06/12 12:13:37;;;;;;;2.33;1.20;;;24.40;43.90;;;;;;5015779;28;20025;-91
2021/06/12 12:16:21;;;;;;;2.88;1.30;;;24.40;44.10;;;;;;5013139;28;20047;-89
2021/06/12 12:18:55;;;;;;;4.43;1.63;;;24.60;44.10;;;;;;5034644;28;20471;-90
2021/06/12 12:21:42;;;;;;;2.90;1.33;;;24.90;43.40;;;;;;5034535;28;20550;-90
2021/06/12 12:24:09;;;;;;;2.75;1.33;;;25.00;43.10;;;;;;5010040;28;20068;-89
2021/06/12 12:26:36;;;;;;;4.63;1.38;;;25.10;42.90;;;;;;5034905;28;20032;-89
2021/06/12 12:29:04;;;;;;;3.67;1.48;;;25.10;42.60;;;;;;5034299;28;20017;-88
2021/06/12 12:31:32;;;;;;;4.53;1.75;;;24.90;42.20;;;;;;5034879;28;20021;-89
2021/06/12 12:34:00;;;;;;;3.70;1.50;;;25.00;42.30;;;;;;5034503;28;20079;-89
2021/06/12 12:36:27;;;;;;;2.22;1.20;;;25.10;41.80;;;;;;5016682;28;20029;-89
2021/06/12 12:39:02;;;;;;;3.72;1.42;;;25.10;42.50;;;;;;5016538;28;20025;-88
2021/06/12 12:41:29;;;;;;;3.85;1.30;;;25.20;41.40;;;;;;5021779;28;20033;-89
2021/06/12 12:44:09;;;;;;;2.78;1.38;;;25.30;41.00;;;;;;5034736;28;20053;-89
2021/06/12 12:46:36;;;;;;;2.97;1.20;;;25.40;40.90;;;;;;5034225;28;20150;-88
2021/06/12 12:49:03;;;;;;;3.25;1.50;;;25.70;40.70;;;;;;5033206;28;20044;-88
2021/06/12 12:51:33;;;;;;;3.75;1.88;;;25.70;39.80;;;;;;5033232;28;20511;-88
2021/06/12 12:54:13;;;;;;;2.67;1.10;;;25.70;39.70;;;;;;5007594;28;20488;-88
2021/06/12 12:56:51;;;;;;;2.83;1.13;;;26.10;39.50;;;;;;5013885;28;20037;-88
2021/06/12 12:59:32;;;;;;;1.30;1.00;;;26.20;38.70;;;;;;5015687;28;20026;-89